sensor_id;sensor_type;location;lat;lon;timestamp;P1;durP1;ratioP1;P2;durP2;ratioP2
26600;SDS011;14241;49.260;10.496;2022-09-16T00:00:42;15.87;;;14.17;;
26600;SDS011;14241;49.260;10.496;2022-09-16T00:03:08;17.33;;;15.48;;
26600;SDS011;14241;49.260;10.496;2022-09-16T00:05:45;16.98;;;15.15;;
26600;SDS011;14241;49.260;10.496;2022-09-16T00:08:11;18.38;;;15.63;;
26600;SDS011;14241;49.260;10.496;2022-09-16T00:10:37;16.95;;;15.13;;
26600;SDS011;14241;49.260;10.496;2022-09-16T00:13:02;16.48;;;14.63;;
26600;SDS011;14241;49.260;10.496;2022-09-16T00:15:28;21.38;;;15.68;;
26600;SDS011;14241;49.260;10.496;2022-09-16T00:17:53;24.73;;;15.32;;
26600;SDS011;14241;49.260;10.496;2022-09-16T00:20:18;20.02;;;17.48;;
26600;SDS011;14241;49.260;10.496;2022-09-16T00:22:43;17.55;;;15.70;;
26600;SDS011;14241;49.260;10.496;2022-09-16T00:25:09;21.77;;;17.20;;
26600;SDS011;14241;49.260;10.496;2022-09-16T00:27:34;22.35;;;17.52;;
26600;SDS011;14241;49.260;10.496;2022-09-16T00:30:00;20.37;;;18.03;;
26600;SDS011;14241;49.260;10.496;2022-09-16T00:32:25;23.50;;;16.83;;
26600;SDS011;14241;49.260;10.496;2022-09-16T00:34:51;22.40;;;18.27;;
26600;SDS011;14241;49.260;10.496;2022-09-16T00:37:16;22.40;;;17.98;;
26600;SDS011;14241;49.260;10.496;2022-09-16T00:39:41;25.63;;;17.35;;
26600;SDS011;14241;49.260;10.496;2022-09-16T00:42:08;19.83;;;17.73;;
26600;SDS011;14241;49.260;10.496;2022-09-16T00:47:26;20.27;;;17.73;;
26600;SDS011;14241;49.260;10.496;2022-09-16T00:49:52;21.52;;;17.42;;
26600;SDS011;14241;49.260;10.496;2022-09-16T00:52:20;19.92;;;17.75;;
26600;SDS011;14241;49.260;10.496;2022-09-16T00:54:46;19.60;;;17.10;;
26600;SDS011;14241;49.260;10.496;2022-09-16T00:57:11;21.50;;;17.73;;
26600;SDS011;14241;49.260;10.496;2022-09-16T00:59:38;23.08;;;17.55;;
26600;SDS011;14241;49.260;10.496;2022-09-16T01:02:06;21.42;;;17.15;;
26600;SDS011;14241;49.260;10.496;2022-09-16T01:04:34;21.42;;;18.33;;
26600;SDS011;14241;49.260;10.496;2022-09-16T01:07:00;23.52;;;17.92;;
26600;SDS011;14241;49.260;10.496;2022-09-16T01:09:26;20.05;;;17.25;;
26600;SDS011;14241;49.260;10.496;2022-09-16T01:11:52;22.58;;;18.50;;
26600;SDS011;14241;49.260;10.496;2022-09-16T01:14:17;25.92;;;18.45;;
26600;SDS011;14241;49.260;10.496;2022-09-16T01:17:25;21.55;;;19.13;;
26600;SDS011;14241;49.260;10.496;2022-09-16T01:28:24;21.15;;;18.73;;
26600;SDS011;14241;49.260;10.496;2022-09-16T01:33:24;19.80;;;17.73;;
26600;SDS011;14241;49.260;10.496;2022-09-16T01:38:56;27.50;;;18.92;;
26600;SDS011;14241;49.260;10.496;2022-09-16T01:46:29;18.48;;;16.50;;
26600;SDS011;14241;49.260;10.496;2022-09-16T01:49:06;18.83;;;16.08;;
26600;SDS011;14241;49.260;10.496;2022-09-16T01:54:17;23.23;;;16.77;;
26600;SDS011;14241;49.260;10.496;2022-09-16T01:57:28;19.30;;;15.15;;
26600;SDS011;14241;49.260;10.496;2022-09-16T02:04:25;16.73;;;14.48;;
26600;SDS011;14241;49.260;10.496;2022-09-16T02:06:51;17.48;;;13.38;;
26600;SDS011;14241;49.260;10.496;2022-09-16T02:09:18;16.80;;;13.85;;
26600;SDS011;14241;49.260;10.496;2022-09-16T02:11:45;16.75;;;14.68;;
26600;SDS011;14241;49.260;10.496;2022-09-16T02:14:13;16.38;;;13.10;;
26600;SDS011;14241;49.260;10.496;2022-09-16T02:16:41;15.00;;;12.68;;
26600;SDS011;14241;49.260;10.496;2022-09-16T02:19:14;15.52;;;12.48;;
26600;SDS011;14241;49.260;10.496;2022-09-16T02:21:41;15.52;;;11.98;;
26600;SDS011;14241;49.260;10.496;2022-09-16T02:24:10;13.63;;;11.90;;
26600;SDS011;14241;49.260;10.496;2022-09-16T02:26:39;16.77;;;12.40;;
26600;SDS011;14241;49.260;10.496;2022-09-16T02:29:09;14.70;;;12.30;;
26600;SDS011;14241;49.260;10.496;2022-09-16T02:31:36;14.45;;;11.73;;
26600;SDS011;14241;49.260;10.496;2022-09-16T02:34:03;13.63;;;11.30;;
26600;SDS011;14241;49.260;10.496;2022-09-16T02:36:30;12.85;;;11.30;;
26600;SDS011;14241;49.260;10.496;2022-09-16T02:39:02;11.75;;;10.40;;
26600;SDS011;14241;49.260;10.496;2022-09-16T02:41:29;11.35;;;9.93;;
26600;SDS011;14241;49.260;10.496;2022-09-16T02:43:55;14.07;;;11.80;;
26600;SDS011;14241;49.260;10.496;2022-09-16T02:46:23;13.98;;;11.00;;
26600;SDS011;14241;49.260;10.496;2022-09-16T02:49:08;14.85;;;10.77;;
26600;SDS011;14241;49.260;10.496;2022-09-16T02:51:46;11.93;;;10.38;;
26600;SDS011;14241;49.260;10.496;2022-09-16T02:56:40;13.35;;;10.52;;
26600;SDS011;14241;49.260;10.496;2022-09-16T02:59:06;14.32;;;10.30;;
26600;SDS011;14241;49.260;10.496;2022-09-16T03:01:32;12.25;;;9.27;;
26600;SDS011;14241;49.260;10.496;2022-09-16T03:03:59;14.75;;;10.52;;
26600;SDS011;14241;49.260;10.496;2022-09-16T03:06:25;13.80;;;11.23;;
26600;SDS011;14241;49.260;10.496;2022-09-16T03:08:51;11.20;;;10.00;;
26600;SDS011;14241;49.260;10.496;2022-09-16T03:11:27;12.45;;;11.05;;
26600;SDS011;14241;49.260;10.496;2022-09-16T03:14:01;13.20;;;10.73;;
26600;SDS011;14241;49.260;10.496;2022-09-16T03:19:15;13.55;;;11.30;;
26600;SDS011;14241;49.260;10.496;2022-09-16T03:21:51;17.17;;;11.23;;
26600;SDS011;14241;49.260;10.496;2022-09-16T03:24:31;15.82;;;12.20;;
26600;SDS011;14241;49.260;10.496;2022-09-16T03:36:46;13.90;;;12.03;;
26600;SDS011;14241;49.260;10.496;2022-09-16T03:39:13;17.30;;;12.65;;
26600;SDS011;14241;49.260;10.496;2022-09-16T03:41:39;14.50;;;12.35;;
26600;SDS011;14241;49.260;10.496;2022-09-16T03:44:04;20.83;;;16.50;;
26600;SDS011;14241;49.260;10.496;2022-09-16T03:46:30;18.65;;;13.32;;
26600;SDS011;14241;49.260;10.496;2022-09-16T03:48:55;19.13;;;14.10;;
26600;SDS011;14241;49.260;10.496;2022-09-16T03:51:21;15.80;;;14.30;;
26600;SDS011;14241;49.260;10.496;2022-09-16T03:53:46;19.00;;;13.30;;
26600;SDS011;14241;49.260;10.496;2022-09-16T03:56:11;16.60;;;14.60;;
26600;SDS011;14241;49.260;10.496;2022-09-16T03:58:37;16.37;;;14.67;;
26600;SDS011;14241;49.260;10.496;2022-09-16T04:01:02;16.90;;;11.98;;
26600;SDS011;14241;49.260;10.496;2022-09-16T04:03:28;19.00;;;13.80;;
26600;SDS011;14241;49.260;10.496;2022-09-16T04:05:53;16.23;;;12.60;;
26600;SDS011;14241;49.260;10.496;2022-09-16T04:08:19;15.80;;;12.13;;
26600;SDS011;14241;49.260;10.496;2022-09-16T04:11:00;13.82;;;11.88;;
26600;SDS011;14241;49.260;10.496;2022-09-16T04:13:28;13.90;;;12.07;;
26600;SDS011;14241;49.260;10.496;2022-09-16T04:15:53;16.95;;;12.82;;
26600;SDS011;14241;49.260;10.496;2022-09-16T04:18:19;14.93;;;12.40;;
26600;SDS011;14241;49.260;10.496;2022-09-16T04:20:44;14.43;;;11.23;;
26600;SDS011;14241;49.260;10.496;2022-09-16T04:23:09;15.63;;;11.20;;
26600;SDS011;14241;49.260;10.496;2022-09-16T04:25:34;14.68;;;10.27;;
26600;SDS011;14241;49.260;10.496;2022-09-16T04:27:59;14.97;;;10.43;;
26600;SDS011;14241;49.260;10.496;2022-09-16T04:30:25;14.05;;;10.07;;
26600;SDS011;14241;49.260;10.496;2022-09-16T04:32:54;17.90;;;10.18;;
26600;SDS011;14241;49.260;10.496;2022-09-16T04:35:20;12.68;;;9.73;;
26600;SDS011;14241;49.260;10.496;2022-09-16T04:37:46;13.25;;;9.13;;
26600;SDS011;14241;49.260;10.496;2022-09-16T04:40:11;14.57;;;8.70;;
26600;SDS011;14241;49.260;10.496;2022-09-16T04:42:36;11.43;;;8.30;;
26600;SDS011;14241;49.260;10.496;2022-09-16T04:45:01;13.25;;;9.35;;
26600;SDS011;14241;49.260;10.496;2022-09-16T04:47:27;12.02;;;9.85;;
26600;SDS011;14241;49.260;10.496;2022-09-16T04:49:53;10.73;;;7.78;;
26600;SDS011;14241;49.260;10.496;2022-09-16T04:52:18;10.73;;;7.90;;
26600;SDS011;14241;49.260;10.496;2022-09-16T04:54:43;10.67;;;8.00;;
26600;SDS011;14241;49.260;10.496;2022-09-16T04:57:09;12.30;;;7.90;;
26600;SDS011;14241;49.260;10.496;2022-09-16T04:59:34;9.97;;;7.20;;
26600;SDS011;14241;49.260;10.496;2022-09-16T05:01:59;11.17;;;7.40;;
26600;SDS011;14241;49.260;10.496;2022-09-16T05:04:25;11.77;;;6.78;;
26600;SDS011;14241;49.260;10.496;2022-09-16T05:06:50;12.50;;;6.70;;
26600;SDS011;14241;49.260;10.496;2022-09-16T05:09:15;8.30;;;6.35;;
26600;SDS011;14241;49.260;10.496;2022-09-16T05:11:41;11.52;;;6.15;;
26600;SDS011;14241;49.260;10.496;2022-09-16T05:14:08;9.50;;;6.50;;
26600;SDS011;14241;49.260;10.496;2022-09-16T05:16:34;9.10;;;5.90;;
26600;SDS011;14241;49.260;10.496;2022-09-16T05:19:00;10.50;;;6.63;;
26600;SDS011;14241;49.260;10.496;2022-09-16T05:21:30;11.88;;;6.47;;
26600;SDS011;14241;49.260;10.496;2022-09-16T05:23:58;7.93;;;5.90;;
26600;SDS011;14241;49.260;10.496;2022-09-16T05:26:24;9.13;;;6.38;;
26600;SDS011;14241;49.260;10.496;2022-09-16T05:28:50;10.50;;;6.65;;
26600;SDS011;14241;49.260;10.496;2022-09-16T05:31:23;10.65;;;6.63;;
26600;SDS011;14241;49.260;10.496;2022-09-16T05:36:19;13.32;;;7.35;;
26600;SDS011;14241;49.260;10.496;2022-09-16T05:38:45;11.40;;;7.85;;
26600;SDS011;14241;49.260;10.496;2022-09-16T05:41:10;9.77;;;6.97;;
26600;SDS011;14241;49.260;10.496;2022-09-16T05:43:36;8.93;;;7.22;;
26600;SDS011;14241;49.260;10.496;2022-09-16T05:46:02;11.80;;;7.57;;
26600;SDS011;14241;49.260;10.496;2022-09-16T05:48:27;10.55;;;7.30;;
26600;SDS011;14241;49.260;10.496;2022-09-16T05:50:53;13.10;;;7.45;;
26600;SDS011;14241;49.260;10.496;2022-09-16T05:53:19;11.05;;;7.22;;
26600;SDS011;14241;49.260;10.496;2022-09-16T05:58:19;11.23;;;6.57;;
26600;SDS011;14241;49.260;10.496;2022-09-16T06:00:44;7.73;;;6.20;;
26600;SDS011;14241;49.260;10.496;2022-09-16T06:03:10;7.97;;;6.05;;
26600;SDS011;14241;49.260;10.496;2022-09-16T06:05:35;10.23;;;6.45;;
26600;SDS011;14241;49.260;10.496;2022-09-16T06:08:00;10.93;;;6.30;;
26600;SDS011;14241;49.260;10.496;2022-09-16T06:10:26;8.27;;;5.40;;
26600;SDS011;14241;49.260;10.496;2022-09-16T06:12:51;8.07;;;5.60;;
26600;SDS011;14241;49.260;10.496;2022-09-16T06:15:16;10.90;;;5.80;;
26600;SDS011;14241;49.260;10.496;2022-09-16T06:17:41;11.90;;;6.27;;
26600;SDS011;14241;49.260;10.496;2022-09-16T06:20:07;8.40;;;5.90;;
26600;SDS011;14241;49.260;10.496;2022-09-16T06:22:38;9.82;;;5.97;;
26600;SDS011;14241;49.260;10.496;2022-09-16T06:25:04;9.43;;;5.78;;
26600;SDS011;14241;49.260;10.496;2022-09-16T06:27:30;12.10;;;6.40;;
26600;SDS011;14241;49.260;10.496;2022-09-16T06:29:55;9.40;;;5.05;;
26600;SDS011;14241;49.260;10.496;2022-09-16T06:32:21;9.65;;;5.13;;
26600;SDS011;14241;49.260;10.496;2022-09-16T06:34:46;7.20;;;4.60;;
26600;SDS011;14241;49.260;10.496;2022-09-16T06:37:11;8.45;;;4.85;;
26600;SDS011;14241;49.260;10.496;2022-09-16T06:39:38;7.15;;;4.60;;
26600;SDS011;14241;49.260;10.496;2022-09-16T06:42:05;9.57;;;5.13;;
26600;SDS011;14241;49.260;10.496;2022-09-16T06:44:31;7.47;;;5.00;;
26600;SDS011;14241;49.260;10.496;2022-09-16T06:46:56;6.32;;;4.43;;
26600;SDS011;14241;49.260;10.496;2022-09-16T06:49:21;9.03;;;4.60;;
26600;SDS011;14241;49.260;10.496;2022-09-16T06:51:46;10.57;;;5.13;;
26600;SDS011;14241;49.260;10.496;2022-09-16T06:54:12;5.88;;;5.28;;
26600;SDS011;14241;49.260;10.496;2022-09-16T06:56:37;7.43;;;4.90;;
26600;SDS011;14241;49.260;10.496;2022-09-16T06:59:05;10.75;;;5.60;;
26600;SDS011;14241;49.260;10.496;2022-09-16T07:01:30;8.60;;;5.00;;
26600;SDS011;14241;49.260;10.496;2022-09-16T07:03:56;6.00;;;5.13;;
26600;SDS011;14241;49.260;10.496;2022-09-16T07:06:22;9.25;;;5.95;;
26600;SDS011;14241;49.260;10.496;2022-09-16T07:08:48;12.82;;;5.97;;
26600;SDS011;14241;49.260;10.496;2022-09-16T07:11:14;8.73;;;5.20;;
26600;SDS011;14241;49.260;10.496;2022-09-16T07:13:40;7.72;;;4.95;;
26600;SDS011;14241;49.260;10.496;2022-09-16T07:16:07;7.05;;;4.55;;
26600;SDS011;14241;49.260;10.496;2022-09-16T07:18:32;9.43;;;4.60;;
26600;SDS011;14241;49.260;10.496;2022-09-16T07:21:01;8.65;;;4.75;;
26600;SDS011;14241;49.260;10.496;2022-09-16T07:23:28;5.35;;;4.63;;
26600;SDS011;14241;49.260;10.496;2022-09-16T07:26:03;8.68;;;4.85;;
26600;SDS011;14241;49.260;10.496;2022-09-16T07:28:29;9.03;;;4.67;;
26600;SDS011;14241;49.260;10.496;2022-09-16T07:30:55;5.47;;;3.85;;
26600;SDS011;14241;49.260;10.496;2022-09-16T07:33:20;9.35;;;4.18;;
26600;SDS011;14241;49.260;10.496;2022-09-16T07:35:46;6.70;;;3.60;;
26600;SDS011;14241;49.260;10.496;2022-09-16T07:38:11;7.50;;;3.50;;
26600;SDS011;14241;49.260;10.496;2022-09-16T07:40:36;6.32;;;3.10;;
26600;SDS011;14241;49.260;10.496;2022-09-16T07:43:04;5.85;;;2.95;;
26600;SDS011;14241;49.260;10.496;2022-09-16T07:45:30;4.18;;;2.92;;
26600;SDS011;14241;49.260;10.496;2022-09-16T07:47:56;4.38;;;2.78;;
26600;SDS011;14241;49.260;10.496;2022-09-16T07:50:21;6.22;;;3.17;;
26600;SDS011;14241;49.260;10.496;2022-09-16T07:52:46;5.57;;;2.50;;
26600;SDS011;14241;49.260;10.496;2022-09-16T07:55:11;6.50;;;2.72;;
26600;SDS011;14241;49.260;10.496;2022-09-16T07:57:37;5.27;;;2.27;;
26600;SDS011;14241;49.260;10.496;2022-09-16T08:00:02;5.40;;;2.60;;
26600;SDS011;14241;49.260;10.496;2022-09-16T08:02:28;3.50;;;2.22;;
26600;SDS011;14241;49.260;10.496;2022-09-16T08:04:53;7.68;;;2.78;;
26600;SDS011;14241;49.260;10.496;2022-09-16T08:07:18;8.45;;;2.95;;
26600;SDS011;14241;49.260;10.496;2022-09-16T08:09:44;5.32;;;2.40;;
26600;SDS011;14241;49.260;10.496;2022-09-16T08:12:09;3.30;;;2.30;;
26600;SDS011;14241;49.260;10.496;2022-09-16T08:14:35;6.95;;;2.40;;
26600;SDS011;14241;49.260;10.496;2022-09-16T08:17:00;5.40;;;2.38;;
26600;SDS011;14241;49.260;10.496;2022-09-16T08:19:28;5.60;;;2.63;;
26600;SDS011;14241;49.260;10.496;2022-09-16T08:21:53;7.80;;;2.90;;
26600;SDS011;14241;49.260;10.496;2022-09-16T08:24:18;5.80;;;2.40;;
26600;SDS011;14241;49.260;10.496;2022-09-16T08:26:43;6.82;;;2.70;;
26600;SDS011;14241;49.260;10.496;2022-09-16T08:29:08;5.95;;;2.47;;
26600;SDS011;14241;49.260;10.496;2022-09-16T08:31:34;6.00;;;2.57;;
26600;SDS011;14241;49.260;10.496;2022-09-16T08:33:59;4.85;;;2.80;;
26600;SDS011;14241;49.260;10.496;2022-09-16T08:36:24;3.85;;;2.35;;
26600;SDS011;14241;49.260;10.496;2022-09-16T08:38:51;5.22;;;2.65;;
26600;SDS011;14241;49.260;10.496;2022-09-16T08:46:46;4.43;;;1.50;;
26600;SDS011;14241;49.260;10.496;2022-09-16T08:51:42;3.53;;;1.90;;
26600;SDS011;14241;49.260;10.496;2022-09-16T08:54:17;5.65;;;2.03;;
26600;SDS011;14241;49.260;10.496;2022-09-16T08:56:45;8.48;;;1.88;;
26600;SDS011;14241;49.260;10.496;2022-09-16T08:59:12;4.68;;;1.83;;
26600;SDS011;14241;49.260;10.496;2022-09-16T09:01:49;7.20;;;2.05;;
26600;SDS011;14241;49.260;10.496;2022-09-16T09:04:17;5.20;;;1.70;;
26600;SDS011;14241;49.260;10.496;2022-09-16T09:09:22;3.13;;;1.23;;
26600;SDS011;14241;49.260;10.496;2022-09-16T09:14:33;5.50;;;1.70;;
26600;SDS011;14241;49.260;10.496;2022-09-16T09:19:41;6.07;;;1.63;;
26600;SDS011;14241;49.260;10.496;2022-09-16T09:30:13;7.82;;;1.80;;
26600;SDS011;14241;49.260;10.496;2022-09-16T09:32:49;7.65;;;2.00;;
26600;SDS011;14241;49.260;10.496;2022-09-16T09:42:51;4.27;;;1.53;;
26600;SDS011;14241;49.260;10.496;2022-09-16T09:47:47;4.53;;;2.10;;
26600;SDS011;14241;49.260;10.496;2022-09-16T09:50:30;5.32;;;2.03;;
26600;SDS011;14241;49.260;10.496;2022-09-16T09:55:23;6.45;;;2.55;;
26600;SDS011;14241;49.260;10.496;2022-09-16T09:58:04;3.58;;;1.73;;
26600;SDS011;14241;49.260;10.496;2022-09-16T10:00:33;5.18;;;2.00;;
26600;SDS011;14241;49.260;10.496;2022-09-16T10:03:06;4.38;;;1.58;;
26600;SDS011;14241;49.260;10.496;2022-09-16T10:05:34;4.93;;;1.90;;
26600;SDS011;14241;49.260;10.496;2022-09-16T10:11:00;2.95;;;1.60;;
26600;SDS011;14241;49.260;10.496;2022-09-16T10:13:26;4.00;;;1.90;;
26600;SDS011;14241;49.260;10.496;2022-09-16T10:16:05;4.80;;;2.50;;
26600;SDS011;14241;49.260;10.496;2022-09-16T10:18:31;4.93;;;1.90;;
26600;SDS011;14241;49.260;10.496;2022-09-16T10:21:05;5.72;;;2.50;;
26600;SDS011;14241;49.260;10.496;2022-09-16T10:23:31;9.88;;;2.35;;
26600;SDS011;14241;49.260;10.496;2022-09-16T10:26:06;5.03;;;2.47;;
26600;SDS011;14241;49.260;10.496;2022-09-16T10:28:39;6.00;;;2.83;;
26600;SDS011;14241;49.260;10.496;2022-09-16T10:31:05;7.53;;;2.90;;
26600;SDS011;14241;49.260;10.496;2022-09-16T10:33:32;4.47;;;2.45;;
26600;SDS011;14241;49.260;10.496;2022-09-16T10:35:59;5.40;;;2.47;;
26600;SDS011;14241;49.260;10.496;2022-09-16T10:38:33;5.40;;;2.72;;
26600;SDS011;14241;49.260;10.496;2022-09-16T10:41:01;6.05;;;2.70;;
26600;SDS011;14241;49.260;10.496;2022-09-16T10:43:28;8.27;;;2.75;;
26600;SDS011;14241;49.260;10.496;2022-09-16T10:45:54;4.13;;;2.50;;
26600;SDS011;14241;49.260;10.496;2022-09-16T10:48:28;3.65;;;2.72;;
26600;SDS011;14241;49.260;10.496;2022-09-16T10:50:58;3.80;;;2.80;;
26600;SDS011;14241;49.260;10.496;2022-09-16T10:55:58;4.68;;;2.72;;
26600;SDS011;14241;49.260;10.496;2022-09-16T10:58:24;5.55;;;3.30;;
26600;SDS011;14241;49.260;10.496;2022-09-16T11:03:39;9.40;;;3.35;;
26600;SDS011;14241;49.260;10.496;2022-09-16T11:21:48;6.87;;;2.90;;
26600;SDS011;14241;49.260;10.496;2022-09-16T11:24:54;5.47;;;2.90;;
26600;SDS011;14241;49.260;10.496;2022-09-16T11:27:23;7.78;;;2.92;;
26600;SDS011;14241;49.260;10.496;2022-09-16T11:42:34;5.72;;;2.47;;
26600;SDS011;14241;49.260;10.496;2022-09-16T11:55:39;4.85;;;2.10;;
26600;SDS011;14241;49.260;10.496;2022-09-16T12:00:55;4.18;;;1.70;;
26600;SDS011;14241;49.260;10.496;2022-09-16T12:03:28;5.90;;;2.47;;
26600;SDS011;14241;49.260;10.496;2022-09-16T12:05:57;5.60;;;1.88;;
26600;SDS011;14241;49.260;10.496;2022-09-16T12:08:29;6.10;;;1.77;;
26600;SDS011;14241;49.260;10.496;2022-09-16T12:11:01;6.70;;;2.25;;
26600;SDS011;14241;49.260;10.496;2022-09-16T12:13:35;5.40;;;2.70;;
26600;SDS011;14241;49.260;10.496;2022-09-16T12:16:08;4.78;;;2.20;;
26600;SDS011;14241;49.260;10.496;2022-09-16T12:21:16;4.07;;;2.25;;
26600;SDS011;14241;49.260;10.496;2022-09-16T12:24:05;6.78;;;2.25;;
26600;SDS011;14241;49.260;10.496;2022-09-16T12:26:31;3.42;;;1.75;;
26600;SDS011;14241;49.260;10.496;2022-09-16T12:29:14;5.55;;;2.15;;
26600;SDS011;14241;49.260;10.496;2022-09-16T12:31:52;3.25;;;2.00;;
26600;SDS011;14241;49.260;10.496;2022-09-16T12:34:23;6.18;;;2.42;;
26600;SDS011;14241;49.260;10.496;2022-09-16T12:36:56;5.38;;;2.67;;
26600;SDS011;14241;49.260;10.496;2022-09-16T12:39:22;5.65;;;2.17;;
26600;SDS011;14241;49.260;10.496;2022-09-16T12:58:14;6.43;;;2.13;;
26600;SDS011;14241;49.260;10.496;2022-09-16T13:00:19;7.25;;;1.75;;
26600;SDS011;14241;49.260;10.496;2022-09-16T13:03:19;4.38;;;1.55;;
26600;SDS011;14241;49.260;10.496;2022-09-16T13:05:36;4.85;;;1.60;;
26600;SDS011;14241;49.260;10.496;2022-09-16T13:08:06;4.72;;;1.38;;
26600;SDS011;14241;49.260;10.496;2022-09-16T13:10:36;5.72;;;1.42;;
26600;SDS011;14241;49.260;10.496;2022-09-16T13:13:02;5.07;;;1.30;;
26600;SDS011;14241;49.260;10.496;2022-09-16T13:15:37;4.35;;;1.30;;
26600;SDS011;14241;49.260;10.496;2022-09-16T13:20:36;2.95;;;1.20;;
26600;SDS011;14241;49.260;10.496;2022-09-16T13:28:46;4.75;;;1.58;;
26600;SDS011;14241;49.260;10.496;2022-09-16T13:33:41;6.47;;;1.70;;
26600;SDS011;14241;49.260;10.496;2022-09-16T13:39:03;4.07;;;1.58;;
26600;SDS011;14241;49.260;10.496;2022-09-16T13:43:58;5.82;;;2.10;;
26600;SDS011;14241;49.260;10.496;2022-09-16T13:46:35;5.60;;;1.73;;
26600;SDS011;14241;49.260;10.496;2022-09-16T13:51:25;7.40;;;2.50;;
26600;SDS011;14241;49.260;10.496;2022-09-16T13:53:51;5.72;;;1.95;;
26600;SDS011;14241;49.260;10.496;2022-09-16T14:06:42;4.20;;;2.03;;
26600;SDS011;14241;49.260;10.496;2022-09-16T14:14:37;4.82;;;2.00;;
26600;SDS011;14241;49.260;10.496;2022-09-16T14:17:04;6.68;;;2.00;;
26600;SDS011;14241;49.260;10.496;2022-09-16T14:19:38;5.65;;;2.25;;
26600;SDS011;14241;49.260;10.496;2022-09-16T14:22:17;5.65;;;2.20;;
26600;SDS011;14241;49.260;10.496;2022-09-16T14:24:45;5.53;;;1.95;;
26600;SDS011;14241;49.260;10.496;2022-09-16T14:29:58;2.55;;;1.65;;
26600;SDS011;14241;49.260;10.496;2022-09-16T14:32:24;5.25;;;1.98;;
26600;SDS011;14241;49.260;10.496;2022-09-16T14:34:50;3.85;;;1.52;;
26600;SDS011;14241;49.260;10.496;2022-09-16T14:37:17;8.43;;;2.05;;
26600;SDS011;14241;49.260;10.496;2022-09-16T14:39:44;4.35;;;1.65;;
26600;SDS011;14241;49.260;10.496;2022-09-16T14:42:13;3.00;;;1.52;;
26600;SDS011;14241;49.260;10.496;2022-09-16T14:44:46;2.63;;;1.52;;
26600;SDS011;14241;49.260;10.496;2022-09-16T14:49:48;6.38;;;1.58;;
26600;SDS011;14241;49.260;10.496;2022-09-16T14:52:16;3.90;;;1.48;;
26600;SDS011;14241;49.260;10.496;2022-09-16T14:54:42;2.38;;;1.33;;
26600;SDS011;14241;49.260;10.496;2022-09-16T14:57:29;4.47;;;1.15;;
26600;SDS011;14241;49.260;10.496;2022-09-16T14:59:55;3.38;;;0.85;;
26600;SDS011;14241;49.260;10.496;2022-09-16T15:04:48;2.88;;;0.70;;
26600;SDS011;14241;49.260;10.496;2022-09-16T15:07:22;2.42;;;0.85;;
26600;SDS011;14241;49.260;10.496;2022-09-16T15:12:18;3.08;;;1.08;;
26600;SDS011;14241;49.260;10.496;2022-09-16T15:14:43;2.20;;;1.08;;
26600;SDS011;14241;49.260;10.496;2022-09-16T15:17:09;3.85;;;1.33;;
26600;SDS011;14241;49.260;10.496;2022-09-16T15:19:40;3.60;;;0.90;;
26600;SDS011;14241;49.260;10.496;2022-09-16T15:22:06;4.28;;;0.88;;
26600;SDS011;14241;49.260;10.496;2022-09-16T15:24:33;3.22;;;1.13;;
26600;SDS011;14241;49.260;10.496;2022-09-16T15:26:59;2.17;;;1.00;;
26600;SDS011;14241;49.260;10.496;2022-09-16T15:29:26;4.15;;;1.10;;
26600;SDS011;14241;49.260;10.496;2022-09-16T15:31:52;3.88;;;1.00;;
26600;SDS011;14241;49.260;10.496;2022-09-16T15:34:20;1.92;;;0.85;;
26600;SDS011;14241;49.260;10.496;2022-09-16T15:36:55;3.47;;;1.10;;
26600;SDS011;14241;49.260;10.496;2022-09-16T15:39:28;4.63;;;0.90;;
26600;SDS011;14241;49.260;10.496;2022-09-16T15:42:13;3.13;;;1.10;;
26600;SDS011;14241;49.260;10.496;2022-09-16T15:47:15;2.80;;;1.10;;
26600;SDS011;14241;49.260;10.496;2022-09-16T15:49:41;2.40;;;0.80;;
26600;SDS011;14241;49.260;10.496;2022-09-16T15:52:08;3.10;;;1.00;;
26600;SDS011;14241;49.260;10.496;2022-09-16T15:54:35;2.22;;;1.00;;
26600;SDS011;14241;49.260;10.496;2022-09-16T16:01:57;3.13;;;0.73;;
26600;SDS011;14241;49.260;10.496;2022-09-16T16:04:25;4.93;;;1.00;;
26600;SDS011;14241;49.260;10.496;2022-09-16T16:11:52;4.57;;;0.93;;
26600;SDS011;14241;49.260;10.496;2022-09-16T16:14:17;1.38;;;0.82;;
26600;SDS011;14241;49.260;10.496;2022-09-16T16:16:42;3.13;;;1.00;;
26600;SDS011;14241;49.260;10.496;2022-09-16T16:19:07;2.85;;;0.98;;
26600;SDS011;14241;49.260;10.496;2022-09-16T16:21:34;1.60;;;0.85;;
26600;SDS011;14241;49.260;10.496;2022-09-16T16:24:02;3.47;;;1.05;;
26600;SDS011;14241;49.260;10.496;2022-09-16T16:26:27;3.58;;;1.10;;
26600;SDS011;14241;49.260;10.496;2022-09-16T16:28:53;2.83;;;1.00;;
26600;SDS011;14241;49.260;10.496;2022-09-16T16:31:18;1.88;;;0.93;;
26600;SDS011;14241;49.260;10.496;2022-09-16T16:33:44;3.58;;;0.85;;
26600;SDS011;14241;49.260;10.496;2022-09-16T16:36:10;3.75;;;1.10;;
26600;SDS011;14241;49.260;10.496;2022-09-16T16:38:36;3.67;;;0.93;;
26600;SDS011;14241;49.260;10.496;2022-09-16T16:41:01;3.40;;;1.10;;
26600;SDS011;14241;49.260;10.496;2022-09-16T16:43:27;3.37;;;1.03;;
26600;SDS011;14241;49.260;10.496;2022-09-16T16:45:53;4.55;;;1.35;;
26600;SDS011;14241;49.260;10.496;2022-09-16T16:48:18;4.88;;;1.23;;
26600;SDS011;14241;49.260;10.496;2022-09-16T16:50:43;4.28;;;1.10;;
26600;SDS011;14241;49.260;10.496;2022-09-16T16:53:18;5.03;;;1.40;;
26600;SDS011;14241;49.260;10.496;2022-09-16T16:55:43;3.17;;;0.90;;
26600;SDS011;14241;49.260;10.496;2022-09-16T16:58:08;1.30;;;1.00;;
26600;SDS011;14241;49.260;10.496;2022-09-16T17:00:33;3.75;;;0.80;;
26600;SDS011;14241;49.260;10.496;2022-09-16T17:02:59;2.20;;;0.80;;
26600;SDS011;14241;49.260;10.496;2022-09-16T17:05:24;3.17;;;1.00;;
26600;SDS011;14241;49.260;10.496;2022-09-16T17:07:49;1.30;;;0.68;;
26600;SDS011;14241;49.260;10.496;2022-09-16T17:10:15;1.63;;;0.88;;
26600;SDS011;14241;49.260;10.496;2022-09-16T17:12:40;3.63;;;1.00;;
26600;SDS011;14241;49.260;10.496;2022-09-16T17:15:06;2.45;;;0.93;;
26600;SDS011;14241;49.260;10.496;2022-09-16T17:17:32;3.45;;;0.90;;
26600;SDS011;14241;49.260;10.496;2022-09-16T17:19:57;4.13;;;1.10;;
26600;SDS011;14241;49.260;10.496;2022-09-16T17:22:22;4.38;;;1.13;;
26600;SDS011;14241;49.260;10.496;2022-09-16T17:24:47;1.48;;;0.75;;
26600;SDS011;14241;49.260;10.496;2022-09-16T17:27:13;1.50;;;0.83;;
26600;SDS011;14241;49.260;10.496;2022-09-16T17:29:39;0.85;;;0.80;;
26600;SDS011;14241;49.260;10.496;2022-09-16T17:32:04;2.80;;;1.30;;
26600;SDS011;14241;49.260;10.496;2022-09-16T17:34:30;2.55;;;1.00;;
26600;SDS011;14241;49.260;10.496;2022-09-16T17:36:56;6.00;;;1.20;;
26600;SDS011;14241;49.260;10.496;2022-09-16T17:39:22;4.28;;;1.10;;
26600;SDS011;14241;49.260;10.496;2022-09-16T17:41:48;3.05;;;1.17;;
26600;SDS011;14241;49.260;10.496;2022-09-16T17:44:13;1.92;;;1.00;;
26600;SDS011;14241;49.260;10.496;2022-09-16T17:46:40;2.78;;;1.40;;
26600;SDS011;14241;49.260;10.496;2022-09-16T17:49:08;1.98;;;1.10;;
26600;SDS011;14241;49.260;10.496;2022-09-16T17:51:35;2.30;;;1.20;;
26600;SDS011;14241;49.260;10.496;2022-09-16T17:54:01;1.77;;;1.10;;
26600;SDS011;14241;49.260;10.496;2022-09-16T17:56:27;2.70;;;1.05;;
26600;SDS011;14241;49.260;10.496;2022-09-16T17:58:53;3.35;;;1.10;;
26600;SDS011;14241;49.260;10.496;2022-09-16T18:01:23;2.38;;;1.15;;